Aeroporto :
LOGIN :

Iscrizione | Disclaimer

   EN    FR    IT 

 










Sommario :    VFR   VFR Marginale   IFR   IFR Intensivo   IFR Molto Intensivo
Visibilità : 
Base nubi : 
>= 8 km
>= 3000ft
5 / 8 km
1000 / 3000 ft
1500m / 5 km
500 / 1000 ft
800 / 1500m
200 / 500 ft
< 800m
< 200 ft
Simboli :   Temporali  Nebbia  Neve Forte  Precipitazioni Forti  Vento > 20 kt
SIGMETs :   Varie  Temporali  Ghiacco  Turbolenza  Onda orograficha  Ceneri Vulcaniche






- Altitudine del aeroporto : 13 ft
- Codice IATA : LYX


EGMD - Lydd

ULTIMO METAR :
  • 260420Z AUTO 15009KT 6000 -RA FEW009/// SCT022/// BKN027/// 14/13 Q1012 RERA

METARs OBSOLETI :
  • 260350Z AUTO 16005KT 9999 -RA SCT043/// 14/13 Q1012
  • 260320Z AUTO 13006KT 9999 NCD 13/12 Q1012
  • 260250Z AUTO 12006KT 9999 NCD 14/13 Q1012
  • 260220Z AUTO 07008KT 9999 NCD 14/13 Q1012
  • 260150Z AUTO 06007KT 9999 NCD 13/12 Q1013
  • 260120Z AUTO 22004KT 9999 -RA BKN022/// BKN040/// 14/12 Q1013
  • 260050Z AUTO 26009KT 7000 -RA FEW012/// SCT018/// BKN030/// 14/12 Q1014 RERA
  • 260020Z AUTO 07009KT 9999 NCD 13/12 Q1013
  • 252350Z AUTO 08009KT 8000 -RA FEW043/// 13/11 Q1014

TAF TAF EGMD
Valido dal 26 a 03 ore il 26 a 12 ore UTC


260157Z 2603/2612 17007KT 9999 FEW010 SCT020
TEMPO 2603/2607 6000 RA SHRA
PROB30
TEMPO 2603/2607 3000 +SHRA +TSRA BKN010 BKN015CB
BECMG 2606/2609 23013KT
PROB30
TEMPO 2610/2612 6000 SHRA
ATIS : +44 1797 322 422



MetMap, La meteo Aeronautica in un colpo d'occhio ! - Copyright ORBIFLY Dicembre 2007 - Disclaimer

ORBIFLY MET'MAP TEAM :

Programmazione e sviluppo : Alexandra Zaïnal
Concezione : Baudouin d'Aumeries
Supporto tecnico e logistico : Manuel Goepfert
Aiuto : Marc-Olivier Méhu
Aiuto per la traduzione : Arnaldo La Scala




FONTI E CREDITI :

   NOAA